Time;durP1;ratioP1;P1;durP2;ratioP2;P2;SDS_P1;SDS_P2;PMS_P1;PMS_P2;Temp;Humidity;BMP_temperature;BMP_pressure;BME280_temperature;BME280_humidity;BME280_pressure;Samples;Min_cycle;Max_cycle;Signal;HPM_P1;HPM_P2
2021/09/26 00:00:26;;;;;;;8.02;5.80;;;12.40;99.90;;;;;;6030621;23;20012;-90
2021/09/26 00:02:52;;;;;;;8.70;5.28;;;12.30;99.90;;;;;;6029764;23;20097;-89
2021/09/26 00:05:17;;;;;;;11.55;5.97;;;12.20;99.90;;;;;;6030234;23;20008;-90
2021/09/26 00:07:43;;;;;;;9.93;6.10;;;12.20;99.90;;;;;;6029891;23;20018;-90
2021/09/26 00:10:10;;;;;;;8.10;4.95;;;12.30;99.90;;;;;;6029991;23;20019;-89
2021/09/26 00:12:36;;;;;;;9.02;5.80;;;12.20;99.90;;;;;;6029796;23;20043;-90
2021/09/26 00:15:05;;;;;;;8.48;5.68;;;12.20;99.90;;;;;;6030032;23;20014;-90
2021/09/26 00:17:31;;;;;;;7.25;4.88;;;12.10;99.90;;;;;;6029587;23;20071;-90
2021/09/26 00:19:57;;;;;;;7.78;4.78;;;12.10;99.90;;;;;;6029653;23;20007;-90
2021/09/26 00:22:23;;;;;;;7.38;4.65;;;12.00;99.90;;;;;;6030225;23;20014;-89
2021/09/26 00:24:49;;;;;;;5.72;4.07;;;12.10;99.90;;;;;;6029937;23;20011;-89
2021/09/26 00:27:15;;;;;;;10.15;5.43;;;12.00;99.90;;;;;;6029860;23;20018;-90
2021/09/26 00:29:41;;;;;;;9.52;5.30;;;12.00;99.90;;;;;;6053821;23;20090;-90
2021/09/26 00:32:07;;;;;;;7.60;5.45;;;12.00;99.90;;;;;;6029725;23;20004;-89
2021/09/26 00:34:33;;;;;;;7.75;5.00;;;11.90;99.90;;;;;;6005988;23;20021;-89
2021/09/26 00:36:59;;;;;;;7.10;5.15;;;11.90;99.90;;;;;;6053343;23;20014;-89
2021/09/26 00:39:25;;;;;;;6.63;4.88;;;11.90;99.90;;;;;;6029706;23;20011;-90
2021/09/26 00:41:51;;;;;;;6.43;4.38;;;12.00;99.90;;;;;;6029802;23;20014;-89
2021/09/26 00:44:37;;;;;;;5.93;4.20;;;11.90;99.90;;;;;;6053396;23;20018;-89
2021/09/26 00:47:03;;;;;;;6.25;4.50;;;11.90;99.90;;;;;;5999696;23;20020;-89
2021/09/26 00:49:28;;;;;;;7.70;4.88;;;11.80;99.90;;;;;;5976881;23;20051;-89
2021/09/26 00:51:55;;;;;;;7.18;4.40;;;11.80;99.90;;;;;;6000221;23;20076;-90
2021/09/26 00:54:21;;;;;;;8.25;4.82;;;11.80;99.90;;;;;;6000196;23;20011;-90
2021/09/26 00:56:49;;;;;;;7.47;4.95;;;11.80;99.90;;;;;;5976633;23;20008;-91
2021/09/26 00:59:18;;;;;;;9.05;5.50;;;11.80;99.90;;;;;;6000445;23;20011;-91
2021/09/26 01:01:45;;;;;;;7.68;4.97;;;11.80;99.90;;;;;;6023486;23;20011;-90
2021/09/26 01:04:11;;;;;;;8.07;4.85;;;11.80;99.90;;;;;;5999647;23;20137;-90
2021/09/26 01:07:02;;;;;;;7.25;4.72;;;11.70;99.90;;;;;;6000717;23;20008;-90
2021/09/26 01:09:43;;;;;;;5.85;4.40;;;11.70;99.90;;;;;;5999917;23;20024;-90
2021/09/26 01:12:14;;;;;;;8.40;4.28;;;11.70;99.90;;;;;;6000230;23;20008;-90
2021/09/26 01:15:24;;;;;;;6.80;4.28;;;11.70;99.90;;;;;;6000228;23;20035;-90
2021/09/26 01:18:01;;;;;;;6.38;4.38;;;11.50;99.90;;;;;;5969525;23;20007;-91
2021/09/26 01:20:36;;;;;;;8.05;4.53;;;11.50;99.90;;;;;;5999735;23;20524;-89
2021/09/26 01:23:05;;;;;;;8.40;4.72;;;11.40;99.90;;;;;;6001567;23;20008;-90
2021/09/26 01:25:49;;;;;;;8.23;5.38;;;11.40;99.90;;;;;;6029370;23;20022;-89
2021/09/26 01:28:49;;;;;;;8.95;4.63;;;11.40;99.90;;;;;;6029040;23;20007;-88
2021/09/26 01:31:18;;;;;;;7.57;3.53;;;11.40;99.90;;;;;;6029469;23;20023;-90
2021/09/26 01:33:54;;;;;;;6.70;4.07;;;11.30;99.90;;;;;;6053054;23;20023;-90
2021/09/26 01:36:31;;;;;;;7.63;3.80;;;11.30;99.90;;;;;;6005804;23;20018;-90
2021/09/26 01:39:05;;;;;;;8.02;5.10;;;11.20;99.90;;;;;;6029572;23;20008;-91
2021/09/26 01:41:37;;;;;;;6.57;4.53;;;11.30;99.90;;;;;;6005622;23;20318;-89
2021/09/26 01:44:11;;;;;;;8.30;5.68;;;11.20;99.90;;;;;;6029000;23;20345;-89
2021/09/26 01:46:41;;;;;;;7.90;5.13;;;11.20;99.90;;;;;;6055978;23;20027;-90
2021/09/26 01:49:17;;;;;;;7.13;3.63;;;11.20;99.90;;;;;;6086692;23;20025;-90
2021/09/26 01:51:44;;;;;;;7.70;4.50;;;11.30;99.90;;;;;;6087121;23;20037;-90
2021/09/26 01:54:13;;;;;;;7.40;4.25;;;11.20;99.90;;;;;;6086786;23;20011;-91
2021/09/26 01:56:43;;;;;;;7.25;4.47;;;11.00;99.90;;;;;;6110513;23;20006;-89
2021/09/26 01:59:11;;;;;;;5.93;3.65;;;11.00;99.90;;;;;;6110851;23;20344;-91
2021/09/26 02:01:39;;;;;;;6.55;4.38;;;11.10;99.90;;;;;;6110559;23;20010;-90
2021/09/26 02:04:06;;;;;;;7.03;4.00;;;11.00;99.90;;;;;;6086674;23;20007;-90
2021/09/26 02:06:38;;;;;;;6.63;4.07;;;11.00;99.90;;;;;;6086422;23;20451;-90
2021/09/26 02:09:06;;;;;;;7.88;4.57;;;11.10;99.90;;;;;;6086589;23;20034;-90
2021/09/26 02:11:33;;;;;;;5.78;3.90;;;11.00;99.90;;;;;;6086455;23;20020;-90
2021/09/26 02:14:00;;;;;;;7.03;4.53;;;11.00;99.90;;;;;;6110852;23;20014;-90
2021/09/26 02:16:27;;;;;;;5.82;3.90;;;11.00;99.90;;;;;;6086147;23;20017;-90
2021/09/26 02:18:53;;;;;;;8.63;4.55;;;11.00;99.90;;;;;;6086530;23;20010;-90
2021/09/26 02:21:22;;;;;;;9.25;5.00;;;11.10;99.90;;;;;;6086200;23;20069;-89
2021/09/26 02:23:50;;;;;;;5.93;3.88;;;11.00;99.90;;;;;;6085934;23;20015;-90
2021/09/26 02:26:17;;;;;;;8.50;4.82;;;11.00;99.90;;;;;;6086380;23;20034;-90
2021/09/26 02:28:43;;;;;;;8.35;5.05;;;11.00;99.90;;;;;;6085929;23;20017;-90
2021/09/26 02:31:09;;;;;;;7.55;5.00;;;11.00;99.90;;;;;;6110372;23;20347;-90
2021/09/26 02:33:36;;;;;;;8.00;4.97;;;11.00;99.90;;;;;;6109876;23;20065;-90
2021/09/26 02:36:03;;;;;;;6.68;4.45;;;11.10;99.90;;;;;;6110223;23;20070;-90
2021/09/26 02:38:30;;;;;;;7.72;4.68;;;11.00;99.90;;;;;;6086080;23;20003;-90
2021/09/26 02:41:04;;;;;;;7.72;5.00;;;10.90;99.90;;;;;;6085998;23;20006;-90
2021/09/26 02:43:58;;;;;;;10.52;5.13;;;11.00;99.90;;;;;;6085803;23;20070;-90
2021/09/26 02:46:30;;;;;;;8.75;5.28;;;11.00;99.90;;;;;;6109134;23;20084;-90
2021/09/26 02:48:56;;;;;;;8.63;4.95;;;11.10;99.90;;;;;;6109827;23;20033;-90
2021/09/26 02:51:24;;;;;;;8.18;4.95;;;11.00;99.90;;;;;;6086274;23;20078;-90
2021/09/26 02:53:51;;;;;;;8.40;4.93;;;11.00;99.90;;;;;;6085873;23;20030;-90
2021/09/26 02:56:18;;;;;;;8.25;4.50;;;10.90;99.90;;;;;;6086463;23;20320;-90
2021/09/26 02:58:44;;;;;;;8.38;5.90;;;10.90;99.90;;;;;;6085987;23;20034;-90
2021/09/26 03:01:10;;;;;;;7.22;4.68;;;10.90;99.90;;;;;;6110309;23;20014;-90
2021/09/26 03:03:36;;;;;;;7.57;5.28;;;10.70;99.90;;;;;;6109962;23;20003;-90
2021/09/26 03:06:01;;;;;;;9.57;6.45;;;10.90;99.90;;;;;;6109823;23;20062;-91
2021/09/26 03:08:27;;;;;;;8.82;5.18;;;10.90;99.90;;;;;;6110091;23;20031;-91
2021/09/26 03:10:56;;;;;;;7.28;5.25;;;10.90;99.90;;;;;;6109796;23;20015;-91
2021/09/26 03:13:22;;;;;;;8.70;5.22;;;10.90;99.90;;;;;;6085674;23;20033;-91
2021/09/26 03:15:48;;;;;;;8.75;4.40;;;10.90;99.90;;;;;;6085904;23;20011;-91
2021/09/26 03:18:14;;;;;;;7.25;4.70;;;10.90;99.90;;;;;;6110115;23;20006;-90
2021/09/26 03:20:40;;;;;;;10.02;5.43;;;10.80;99.90;;;;;;6110399;23;20013;-91
2021/09/26 03:23:08;;;;;;;8.02;5.22;;;10.90;99.90;;;;;;6085926;23;20026;-90
2021/09/26 03:25:34;;;;;;;7.65;4.50;;;10.90;99.90;;;;;;6086136;23;20055;-91
2021/09/26 03:28:00;;;;;;;7.20;4.55;;;10.90;99.90;;;;;;6110140;23;20010;-91
2021/09/26 03:30:26;;;;;;;8.23;4.90;;;10.80;99.90;;;;;;6087309;23;20029;-90
2021/09/26 03:32:52;;;;;;;7.40;4.90;;;10.70;99.90;;;;;;6085518;23;20014;-90
2021/09/26 03:35:17;;;;;;;7.78;5.03;;;10.70;99.90;;;;;;6109905;23;20034;-90
2021/09/26 03:37:43;;;;;;;7.15;4.85;;;10.70;99.90;;;;;;6085790;23;20013;-91
2021/09/26 03:40:14;;;;;;;9.43;5.10;;;10.90;99.90;;;;;;6110322;23;20010;-91
2021/09/26 03:42:41;;;;;;;8.23;5.00;;;10.90;99.90;;;;;;6085801;23;20007;-91
2021/09/26 03:45:07;;;;;;;8.00;4.97;;;11.00;99.90;;;;;;6109514;23;20039;-91
2021/09/26 03:47:33;;;;;;;8.40;4.70;;;11.00;99.90;;;;;;6109496;23;20006;-91
2021/09/26 03:49:59;;;;;;;8.20;5.18;;;10.90;99.90;;;;;;6085645;23;20014;-91
2021/09/26 03:52:25;;;;;;;8.10;4.75;;;11.00;99.90;;;;;;6110939;23;20038;-91
2021/09/26 03:54:51;;;;;;;8.55;5.35;;;11.10;99.90;;;;;;6087656;23;20021;-91
2021/09/26 03:57:18;;;;;;;8.40;5.18;;;11.10;99.90;;;;;;6111448;23;20010;-91
2021/09/26 03:59:44;;;;;;;8.40;4.13;;;11.10;99.90;;;;;;6087364;23;20011;-91
2021/09/26 04:02:10;;;;;;;6.85;4.60;;;11.20;99.90;;;;;;6087299;23;20078;-91
2021/09/26 04:04:36;;;;;;;6.32;4.82;;;11.20;99.90;;;;;;6111511;23;20006;-90
2021/09/26 04:07:01;;;;;;;7.75;4.72;;;11.40;99.90;;;;;;6087152;23;20014;-91
2021/09/26 04:09:27;;;;;;;7.50;5.15;;;11.30;99.90;;;;;;6111309;23;20062;-91
2021/09/26 04:11:52;;;;;;;7.65;4.43;;;11.30;99.90;;;;;;6111324;23;20010;-90
2021/09/26 04:14:18;;;;;;;7.15;4.55;;;11.30;99.90;;;;;;6111234;23;20017;-91
2021/09/26 04:16:44;;;;;;;8.75;5.70;;;11.40;99.90;;;;;;6111102;23;20018;-90
2021/09/26 04:19:09;;;;;;;9.40;4.68;;;11.40;99.90;;;;;;6086976;23;20054;-91
2021/09/26 04:21:35;;;;;;;8.98;5.60;;;11.50;99.90;;;;;;6087389;23;20010;-90
2021/09/26 04:24:01;;;;;;;6.05;4.75;;;11.40;99.90;;;;;;6110906;23;20014;-91
2021/09/26 04:26:26;;;;;;;6.90;4.75;;;11.50;99.90;;;;;;6111353;23;20089;-91
2021/09/26 04:28:52;;;;;;;7.80;5.28;;;11.40;99.90;;;;;;6111215;23;20006;-90
2021/09/26 04:31:18;;;;;;;9.05;5.55;;;11.50;99.90;;;;;;6111167;23;20014;-90
2021/09/26 04:33:43;;;;;;;7.90;5.00;;;11.40;99.90;;;;;;6110812;23;19998;-90
2021/09/26 04:36:10;;;;;;;7.38;4.65;;;11.50;99.90;;;;;;6111130;23;20038;-91
2021/09/26 04:38:35;;;;;;;9.30;4.80;;;11.60;99.90;;;;;;6087130;23;20129;-91
2021/09/26 04:41:02;;;;;;;7.50;5.43;;;11.60;99.90;;;;;;6111102;23;20010;-90
2021/09/26 04:43:27;;;;;;;7.00;4.65;;;11.70;99.90;;;;;;6086690;23;20037;-91
2021/09/26 04:45:53;;;;;;;12.18;5.13;;;11.70;99.90;;;;;;6111073;23;20014;-91
2021/09/26 04:48:19;;;;;;;7.68;4.97;;;11.80;99.90;;;;;;6111351;23;20014;-91
2021/09/26 04:50:45;;;;;;;7.38;4.53;;;11.80;99.90;;;;;;6111276;23;20025;-91
2021/09/26 04:53:13;;;;;;;8.07;6.03;;;11.80;99.90;;;;;;6110734;23;20010;-90
2021/09/26 04:55:39;;;;;;;9.25;5.53;;;11.80;99.90;;;;;;6086788;23;20010;-91
2021/09/26 04:58:06;;;;;;;8.95;5.55;;;11.90;99.90;;;;;;6086882;23;20097;-91
2021/09/26 05:00:33;;;;;;;9.10;5.10;;;11.90;99.90;;;;;;6110932;23;20010;-91
2021/09/26 05:02:59;;;;;;;6.72;4.28;;;12.00;99.90;;;;;;6086877;23;20042;-90
2021/09/26 05:05:25;;;;;;;7.43;4.82;;;12.00;99.90;;;;;;6111181;23;20006;-90
2021/09/26 05:07:51;;;;;;;8.30;4.40;;;12.10;99.90;;;;;;6111316;23;20013;-91
2021/09/26 05:10:17;;;;;;;8.38;4.88;;;12.10;99.90;;;;;;6111017;23;20018;-90
2021/09/26 05:12:42;;;;;;;7.97;4.60;;;12.10;99.90;;;;;;6110898;23;20010;-89
2021/09/26 05:15:09;;;;;;;8.73;5.22;;;12.10;99.90;;;;;;6111098;23;20014;-90
2021/09/26 05:17:36;;;;;;;8.00;5.43;;;12.20;99.90;;;;;;6111028;23;20002;-91
2021/09/26 05:20:03;;;;;;;7.90;4.90;;;12.20;99.90;;;;;;6086570;23;20014;-90
2021/09/26 05:22:29;;;;;;;8.88;5.13;;;12.30;99.90;;;;;;6086705;23;20007;-89
2021/09/26 05:24:55;;;;;;;8.68;5.80;;;12.30;99.90;;;;;;6110578;23;20007;-90
2021/09/26 05:27:23;;;;;;;7.07;4.97;;;12.30;99.90;;;;;;6111023;23;20051;-90
2021/09/26 05:29:49;;;;;;;6.55;4.45;;;12.40;99.90;;;;;;6110723;23;20052;-90
2021/09/26 05:32:14;;;;;;;7.82;4.82;;;12.40;99.90;;;;;;6110921;23;20058;-90
2021/09/26 05:34:40;;;;;;;6.45;4.45;;;12.50;99.90;;;;;;6110705;23;20018;-91
2021/09/26 05:37:07;;;;;;;6.55;4.45;;;12.50;99.90;;;;;;6087215;23;20034;-90
2021/09/26 05:39:33;;;;;;;7.07;4.53;;;12.60;99.90;;;;;;6086986;23;20002;-90
2021/09/26 05:42:03;;;;;;;7.50;4.72;;;12.70;99.90;;;;;;6110745;23;20022;-90
2021/09/26 05:44:49;;;;;;;8.90;5.15;;;12.60;99.90;;;;;;6110324;23;20010;-89
2021/09/26 05:47:14;;;;;;;8.60;5.57;;;12.70;99.90;;;;;;6051312;23;20071;-90
2021/09/26 05:49:42;;;;;;;10.07;4.95;;;12.80;99.90;;;;;;6051643;23;20019;-90
2021/09/26 05:52:09;;;;;;;6.32;4.93;;;12.80;99.90;;;;;;6051789;23;20048;-91
2021/09/26 05:54:39;;;;;;;7.25;4.47;;;12.90;99.90;;;;;;6051380;23;20074;-90
2021/09/26 05:57:05;;;;;;;6.45;5.00;;;12.90;99.90;;;;;;6027722;23;20090;-90
2021/09/26 05:59:36;;;;;;;6.93;5.25;;;12.90;99.90;;;;;;6051475;23;20011;-90
2021/09/26 06:02:02;;;;;;;7.00;4.65;;;13.00;99.90;;;;;;6051550;23;20067;-90
2021/09/26 06:04:28;;;;;;;8.95;4.90;;;13.00;99.90;;;;;;6051752;23;20004;-90
2021/09/26 06:06:56;;;;;;;8.02;5.10;;;13.00;99.90;;;;;;6051346;23;20179;-91
2021/09/26 06:09:24;;;;;;;9.13;4.43;;;13.10;99.90;;;;;;6051340;23;20019;-90
2021/09/26 06:11:49;;;;;;;8.50;5.60;;;13.10;99.90;;;;;;6050693;23;20019;-90
2021/09/26 06:14:17;;;;;;;6.90;5.30;;;13.20;99.90;;;;;;6050164;23;20014;-90
2021/09/26 06:16:43;;;;;;;7.95;5.95;;;13.20;99.90;;;;;;6050539;23;20453;-91
2021/09/26 06:19:09;;;;;;;8.60;5.70;;;13.10;99.90;;;;;;6050783;23;20027;-90
2021/09/26 06:21:34;;;;;;;8.43;6.07;;;13.30;99.90;;;;;;6050640;23;20012;-91
2021/09/26 06:24:00;;;;;;;8.18;5.80;;;13.30;99.90;;;;;;6072542;23;20015;-89
2021/09/26 06:26:31;;;;;;;9.82;7.07;;;13.40;99.90;;;;;;6109055;23;20010;-94
2021/09/26 06:28:57;;;;;;;9.57;7.13;;;13.50;99.90;;;;;;6107501;23;20063;-94
2021/09/26 06:31:23;;;;;;;11.20;7.65;;;13.60;99.90;;;;;;6109049;23;20011;-93
2021/09/26 06:33:48;;;;;;;9.98;7.35;;;13.70;99.90;;;;;;6109188;23;20038;-93
2021/09/26 06:36:14;;;;;;;10.00;7.05;;;13.80;99.90;;;;;;6085374;23;20014;-94
2021/09/26 06:38:40;;;;;;;10.85;7.28;;;13.90;99.90;;;;;;6109318;23;20010;-93
2021/09/26 06:41:29;;;;;;;11.77;7.50;;;14.00;99.90;;;;;;6109107;23;20042;-93
2021/09/26 06:47:14;;;;;;;7.68;6.55;;;14.20;99.90;;;;;;6019567;23;20238;-93
2021/09/26 06:49:43;;;;;;;9.20;6.65;;;14.30;99.90;;;;;;5998678;23;20023;-94
2021/09/26 06:52:08;;;;;;;9.68;6.72;;;14.30;99.90;;;;;;6021808;23;20015;-94
2021/09/26 06:54:34;;;;;;;9.93;7.80;;;14.50;99.90;;;;;;6022178;23;20018;-93
2021/09/26 06:57:01;;;;;;;11.02;7.90;;;14.60;99.90;;;;;;6022164;23;20012;-93
2021/09/26 06:59:27;;;;;;;11.25;7.80;;;14.70;99.90;;;;;;6022441;23;20019;-93
2021/09/26 07:01:52;;;;;;;9.52;7.15;;;14.80;99.90;;;;;;5998361;23;20011;-93
2021/09/26 07:04:18;;;;;;;10.65;7.95;;;14.80;99.90;;;;;;6022102;23;20022;-91
2021/09/26 07:06:44;;;;;;;13.77;7.70;;;14.80;99.90;;;;;;5996954;23;20032;-89
2021/09/26 07:09:10;;;;;;;9.98;7.38;;;14.80;99.90;;;;;;6021384;23;20068;-91
2021/09/26 07:11:35;;;;;;;9.50;8.02;;;14.90;99.90;;;;;;6021249;23;20390;-90
2021/09/26 07:14:01;;;;;;;9.93;8.02;;;15.00;99.90;;;;;;6021672;23;20016;-89
2021/09/26 07:16:27;;;;;;;9.05;6.35;;;15.10;99.90;;;;;;6021053;23;20549;-91
2021/09/26 07:18:53;;;;;;;10.38;7.15;;;15.20;99.90;;;;;;6021691;23;20018;-91
2021/09/26 07:21:18;;;;;;;10.90;8.20;;;15.20;99.90;;;;;;6021424;23;20012;-91
2021/09/26 07:23:44;;;;;;;10.30;7.25;;;15.20;99.90;;;;;;6051444;23;20138;-91
2021/09/26 07:26:10;;;;;;;11.07;7.07;;;15.30;99.90;;;;;;6085452;23;20010;-91
2021/09/26 07:28:36;;;;;;;9.38;7.32;;;15.30;99.90;;;;;;6110416;23;20423;-91
2021/09/26 07:31:02;;;;;;;10.25;7.28;;;15.30;99.90;;;;;;6110693;23;20042;-91
2021/09/26 07:33:28;;;;;;;9.13;7.55;;;15.30;99.90;;;;;;6110536;23;20010;-91
2021/09/26 07:35:54;;;;;;;7.75;6.78;;;15.40;99.90;;;;;;6110903;23;20097;-92
2021/09/26 07:38:19;;;;;;;10.32;7.60;;;15.50;99.90;;;;;;6110598;23;20006;-90
2021/09/26 07:40:46;;;;;;;9.93;7.43;;;15.50;99.90;;;;;;6111202;23;20003;-91
2021/09/26 07:43:12;;;;;;;8.57;7.40;;;15.70;99.90;;;;;;6086458;23;20046;-91
2021/09/26 07:45:38;;;;;;;10.50;8.25;;;15.80;99.90;;;;;;6110411;23;20042;-91
2021/09/26 07:48:04;;;;;;;10.35;7.70;;;15.90;99.90;;;;;;6086447;23;20516;-91
2021/09/26 07:50:31;;;;;;;10.57;7.97;;;15.90;99.90;;;;;;6086607;23;20113;-91
2021/09/26 07:52:58;;;;;;;9.65;7.82;;;16.00;99.90;;;;;;6110392;23;20003;-91
2021/09/26 07:55:24;;;;;;;7.63;6.55;;;16.10;99.90;;;;;;6086073;23;20020;-91
2021/09/26 07:57:50;;;;;;;10.30;6.78;;;16.20;99.90;;;;;;6086822;23;20026;-91
2021/09/26 08:00:16;;;;;;;7.93;6.72;;;16.30;99.90;;;;;;6110945;23;20046;-92
2021/09/26 08:02:42;;;;;;;10.55;7.18;;;16.50;99.90;;;;;;6086321;23;20010;-91
2021/09/26 08:05:09;;;;;;;8.25;6.28;;;16.60;99.90;;;;;;6111101;23;20014;-91
2021/09/26 08:07:35;;;;;;;7.88;6.00;;;16.60;99.90;;;;;;6086818;23;20007;-91
2021/09/26 08:10:01;;;;;;;8.15;6.93;;;16.80;99.90;;;;;;6110886;23;20081;-93
2021/09/26 08:12:27;;;;;;;8.45;6.22;;;16.90;99.90;;;;;;6110623;23;20013;-91
2021/09/26 08:25:34;;;;;;;7.20;4.97;;;17.80;99.90;;;;;;6069811;23;20027;-91
2021/09/26 08:28:03;;;;;;;5.95;4.63;;;18.10;99.90;;;;;;6057629;23;20455;-88
2021/09/26 08:30:29;;;;;;;7.13;5.05;;;18.30;99.90;;;;;;6058100;23;20086;-90
2021/09/26 08:32:54;;;;;;;6.30;5.10;;;18.40;99.90;;;;;;6057661;23;20010;-90
2021/09/26 08:35:20;;;;;;;6.55;5.18;;;18.30;99.90;;;;;;6058053;23;20015;-90
2021/09/26 08:37:46;;;;;;;6.22;5.30;;;18.50;99.90;;;;;;6057156;23;20030;-91
2021/09/26 08:40:12;;;;;;;7.10;5.82;;;18.70;99.90;;;;;;6054925;23;20081;-92
2021/09/26 08:42:41;;;;;;;7.65;5.85;;;18.90;99.90;;;;;;6056884;23;20073;-91
2021/09/26 08:45:20;;;;;;;;;;;;;;;;;;;;;
2021/09/26 08:48:45;;;;;;;;;;;;;;;;;;;;;
2021/09/26 08:54:56;;;;;;;10.45;7.60;;;19.50;99.90;;;;;;6008161;23;20015;-90
2021/09/26 08:57:30;;;;;;;8.85;6.47;;;19.50;99.90;;;;;;6056812;23;20026;-90
2021/09/26 08:59:56;;;;;;;7.72;6.35;;;19.80;99.90;;;;;;6081229;23;20075;-90
2021/09/26 09:02:21;;;;;;;8.07;5.82;;;19.70;99.90;;;;;;6081211;23;20242;-87
2021/09/26 09:04:47;;;;;;;6.57;5.93;;;19.90;99.90;;;;;;6057375;23;20122;-90
2021/09/26 09:08:01;;;;;;;6.40;4.63;;;20.10;99.90;;;;;;6057699;23;20317;-90
2021/09/26 09:10:42;;;;;;;5.60;4.68;;;20.20;99.90;;;;;;6057103;23;20025;-90
2021/09/26 09:13:10;;;;;;;9.65;6.93;;;20.40;99.90;;;;;;6057194;23;20094;-89
2021/09/26 09:15:38;;;;;;;7.47;5.95;;;20.50;99.90;;;;;;6056854;23;20017;-89
2021/09/26 09:18:04;;;;;;;7.45;6.68;;;20.70;99.90;;;;;;6081063;23;20011;-89
2021/09/26 09:20:38;;;;;;;9.85;5.68;;;20.70;99.90;;;;;;6057005;23;20089;-87
2021/09/26 09:23:14;;;;;;;6.65;5.97;;;20.80;99.90;;;;;;6057044;23;20007;-89
2021/09/26 09:25:52;;;;;;;7.60;5.60;;;20.90;99.90;;;;;;6056897;23;20154;-89
2021/09/26 09:28:26;;;;;;;10.52;8.15;;;20.90;99.90;;;;;;6057367;23;20058;-89
2021/09/26 09:30:55;;;;;;;10.25;8.00;;;20.80;99.90;;;;;;6056887;23;20078;-88
2021/09/26 09:33:25;;;;;;;7.18;6.28;;;20.90;99.90;;;;;;6056905;23;20058;-89
2021/09/26 09:35:53;;;;;;;7.47;6.20;;;21.30;99.90;;;;;;6081177;23;20015;-88
2021/09/26 09:38:36;;;;;;;7.43;6.55;;;21.30;99.90;;;;;;6057208;23;20010;-88
2021/09/26 09:41:02;;;;;;;9.52;7.13;;;21.10;99.90;;;;;;6081295;23;20018;-89
2021/09/26 09:43:28;;;;;;;10.27;7.90;;;21.20;99.90;;;;;;6056963;23;20015;-88
2021/09/26 09:46:01;;;;;;;8.95;7.82;;;21.30;99.90;;;;;;6080634;23;20381;-91
2021/09/26 09:48:30;;;;;;;7.38;6.32;;;21.40;99.90;;;;;;6080580;23;20010;-88
2021/09/26 09:51:03;;;;;;;7.80;6.87;;;21.70;99.90;;;;;;6080519;23;20019;-89
2021/09/26 09:53:33;;;;;;;8.63;7.80;;;21.70;99.90;;;;;;6056779;23;20011;-90
2021/09/26 09:56:00;;;;;;;;;;;21.60;99.90;;;;;;6057128;23;20011;-87
2021/09/26 09:58:32;;;;;;;7.20;5.32;;;21.90;99.90;;;;;;6056523;23;19945;-88
2021/09/26 10:00:58;;;;;;;8.15;6.43;;;21.80;99.90;;;;;;6080674;23;20011;-90
2021/09/26 10:03:52;;;;;;;6.80;5.70;;;21.80;99.90;;;;;;6056612;23;20013;-87
2021/09/26 10:06:27;;;;;;;7.10;5.95;;;21.80;99.90;;;;;;6080668;23;20015;-87
2021/09/26 10:08:56;;;;;;;7.45;5.75;;;21.70;99.90;;;;;;6056761;23;20009;-88
2021/09/26 10:11:22;;;;;;;8.50;6.32;;;21.80;99.90;;;;;;6080758;23;20018;-88
2021/09/26 10:13:48;;;;;;;8.05;7.15;;;22.00;99.90;;;;;;6056755;23;20313;-89
2021/09/26 10:16:15;;;;;;;7.95;5.38;;;22.10;99.90;;;;;;6056281;23;20017;-88
2021/09/26 10:18:42;;;;;;;8.25;6.78;;;22.00;99.90;;;;;;6056715;23;20031;-89
2021/09/26 10:21:10;;;;;;;8.40;7.20;;;21.50;99.90;;;;;;6056044;23;20027;-87
2021/09/26 10:23:36;;;;;;;7.13;6.43;;;21.70;99.90;;;;;;6057118;23;20092;-90
2021/09/26 10:26:03;;;;;;;8.13;7.05;;;22.10;99.90;;;;;;6056637;23;20030;-88
2021/09/26 10:28:30;;;;;;;9.05;6.03;;;22.50;99.90;;;;;;6057457;23;20090;-90
2021/09/26 10:30:58;;;;;;;7.28;5.95;;;22.50;99.90;;;;;;6082137;23;20026;-90
2021/09/26 10:33:25;;;;;;;8.55;7.18;;;22.70;99.90;;;;;;6081172;23;20011;-91
2021/09/26 10:35:54;;;;;;;8.57;6.05;;;22.60;99.90;;;;;;6081077;23;20011;-92
2021/09/26 10:38:27;;;;;;;6.40;5.80;;;22.80;99.90;;;;;;6081350;23;20014;-91
2021/09/26 10:40:54;;;;;;;9.75;6.95;;;23.20;99.90;;;;;;6080208;23;20056;-91
2021/09/26 10:44:10;;;;;;;8.77;7.88;;;23.00;99.90;;;;;;6065097;23;20011;-91
2021/09/26 10:46:36;;;;;;;6.57;5.93;;;22.70;99.90;;;;;;6050484;23;20039;-90
2021/09/26 10:49:08;;;;;;;9.93;8.07;;;22.80;99.90;;;;;;6027689;23;20016;-91
2021/09/26 10:51:50;;;;;;;8.23;7.00;;;22.80;99.90;;;;;;6051046;23;20071;-89
2021/09/26 10:58:15;;;;;;;5.93;5.32;;;23.80;99.90;;;;;;6039761;23;20026;-89
2021/09/26 11:00:53;;;;;;;5.40;4.82;;;23.60;99.90;;;;;;6027810;23;20011;-90
2021/09/26 11:03:42;;;;;;;7.25;6.28;;;23.40;99.90;;;;;;6023025;23;20008;-90
2021/09/26 11:06:28;;;;;;;;;;;23.30;99.90;;;;;;6042627;23;20035;-89
2021/09/26 11:08:56;;;;;;;6.38;5.32;;;23.00;99.90;;;;;;6051068;23;19906;-90
2021/09/26 11:11:33;;;;;;;7.88;6.15;;;22.50;99.90;;;;;;6026900;23;20019;-93
2021/09/26 11:14:04;;;;;;;5.93;5.32;;;22.50;99.90;;;;;;6051154;23;20003;-89
2021/09/26 11:16:59;;;;;;;5.82;4.95;;;22.70;99.90;;;;;;6026035;23;20015;-88
2021/09/26 11:19:53;;;;;;;7.57;6.47;;;22.90;99.90;;;;;;6027603;23;20047;-92
2021/09/26 11:22:44;;;;;;;6.78;5.53;;;22.70;99.90;;;;;;6057721;23;20033;-90
2021/09/26 11:25:12;;;;;;;6.43;4.75;;;22.80;99.90;;;;;;6080601;23;20054;-88
2021/09/26 11:27:42;;;;;;;5.38;4.63;;;22.80;99.90;;;;;;6056647;23;20152;-89
2021/09/26 11:30:16;;;;;;;6.30;4.82;;;22.90;99.90;;;;;;6080683;23;20019;-92
2021/09/26 11:32:43;;;;;;;7.10;4.82;;;23.10;99.90;;;;;;6080990;23;20011;-91
2021/09/26 11:35:42;;;;;;;5.78;5.18;;;23.10;99.90;;;;;;6057077;23;20015;-92
2021/09/26 11:38:14;;;;;;;5.97;5.32;;;23.10;99.90;;;;;;6056006;23;20003;-91
2021/09/26 11:44:03;;;;;;;6.50;5.75;;;22.70;99.90;;;;;;6139559;23;20033;-92
2021/09/26 11:46:29;;;;;;;5.80;5.20;;;22.90;99.90;;;;;;6114068;23;20053;-91
2021/09/26 11:49:02;;;;;;;5.78;4.88;;;22.80;99.90;;;;;;6114313;23;20010;-90
2021/09/26 11:51:29;;;;;;;5.65;5.05;;;23.40;99.90;;;;;;6114496;23;20014;-90
2021/09/26 11:53:55;;;;;;;6.43;5.45;;;23.60;99.90;;;;;;6114820;23;20010;-90
2021/09/26 11:56:28;;;;;;;5.90;5.30;;;23.80;99.90;;;;;;6114572;23;20014;-89
2021/09/26 11:58:57;;;;;;;7.82;5.65;;;23.70;99.90;;;;;;6114890;23;20002;-88
2021/09/26 12:01:29;;;;;;;7.30;4.88;;;23.60;99.90;;;;;;6114621;23;20010;-91
2021/09/26 12:04:12;;;;;;;5.45;4.32;;;23.90;99.90;;;;;;6114472;23;20036;-91
2021/09/26 12:06:46;;;;;;;5.63;5.00;;;23.90;99.90;;;;;;6114575;23;20036;-90
2021/09/26 12:09:33;;;;;;;5.78;4.35;;;23.50;99.90;;;;;;6087305;23;20030;-91
2021/09/26 12:11:59;;;;;;;4.93;4.43;;;23.80;99.90;;;;;;6090537;23;20020;-90
2021/09/26 12:14:29;;;;;;;4.65;4.20;;;23.80;99.90;;;;;;6092196;23;20064;-92
2021/09/26 12:17:02;;;;;;;5.57;4.13;;;24.00;99.90;;;;;;6116087;23;20013;-89
2021/09/26 12:19:28;;;;;;;5.18;4.65;;;23.80;99.90;;;;;;6116097;23;20017;-89
2021/09/26 12:22:02;;;;;;;7.53;6.30;;;23.70;99.90;;;;;;6116231;23;20032;-90
2021/09/26 12:24:54;;;;;;;5.40;4.85;;;23.40;99.90;;;;;;6116170;23;20006;-90
2021/09/26 12:27:31;;;;;;;7.97;4.80;;;23.10;99.90;;;;;;6091022;23;20048;-88
2021/09/26 12:30:02;;;;;;;4.93;4.30;;;23.20;99.90;;;;;;6140250;23;20014;-89
2021/09/26 12:32:40;;;;;;;5.38;3.65;;;23.10;99.90;;;;;;6115909;23;20075;-88
2021/09/26 12:35:13;;;;;;;5.15;3.65;;;23.40;99.90;;;;;;6116219;23;20010;-89
2021/09/26 12:37:48;;;;;;;4.57;4.18;;;23.30;99.90;;;;;;6115926;23;20005;-90
2021/09/26 12:40:18;;;;;;;3.90;3.50;;;23.70;99.90;;;;;;6115857;23;20332;-89
2021/09/26 12:42:50;;;;;;;5.43;3.67;;;23.80;99.90;;;;;;6091578;23;20006;-88
2021/09/26 12:45:40;;;;;;;4.10;3.55;;;23.60;99.90;;;;;;6115679;23;20021;-91
2021/09/26 12:48:11;;;;;;;3.45;2.65;;;23.60;99.90;;;;;;6115938;23;20033;-89
2021/09/26 12:50:41;;;;;;;7.15;6.38;;;23.40;99.90;;;;;;6115987;23;20024;-91
2021/09/26 12:53:08;;;;;;;6.35;4.95;;;22.80;99.90;;;;;;6115574;23;20498;-91
2021/09/26 12:55:43;;;;;;;4.95;3.95;;;22.80;99.90;;;;;;6091462;23;20014;-89
2021/09/26 12:58:21;;;;;;;5.75;4.72;;;23.00;99.90;;;;;;6115657;23;20422;-89
2021/09/26 13:00:49;;;;;;;6.55;5.95;;;22.70;99.90;;;;;;6115857;23;20010;-90
2021/09/26 13:03:19;;;;;;;7.28;6.57;;;22.60;99.90;;;;;;6114536;23;20141;-90
2021/09/26 13:06:00;;;;;;;9.45;7.18;;;22.60;99.90;;;;;;6114102;23;20067;-90
2021/09/26 13:08:32;;;;;;;5.78;5.13;;;22.60;99.90;;;;;;6091071;23;20056;-90
2021/09/26 13:11:38;;;;;;;5.05;4.63;;;22.80;99.90;;;;;;6090641;23;20018;-89
2021/09/26 13:14:12;;;;;;;6.47;5.70;;;23.10;99.90;;;;;;6137005;23;20045;-89
2021/09/26 13:16:45;;;;;;;6.82;6.07;;;23.10;99.90;;;;;;6139524;23;20070;-89
2021/09/26 13:19:23;;;;;;;9.07;6.53;;;23.10;99.90;;;;;;6090242;23;20010;-90
2021/09/26 13:22:02;;;;;;;5.25;4.85;;;23.30;99.90;;;;;;6139230;23;20010;-89
2021/09/26 13:24:29;;;;;;;6.93;6.38;;;23.30;99.90;;;;;;6114956;23;20014;-90
2021/09/26 13:26:55;;;;;;;6.20;5.68;;;23.10;99.90;;;;;;6090796;23;20037;-89